createdAt,value
2024-03-13T00:00:06.265Z,100617.16
2024-03-13T00:01:29.502Z,100608.59
2024-03-13T00:02:36.688Z,100613.78
2024-03-13T00:03:39.777Z,100613.94
2024-03-13T00:04:45.696Z,100606.03
2024-03-13T00:05:49.742Z,100610.41
2024-03-13T00:06:52.843Z,100602.34
2024-03-13T00:07:55.725Z,100601.88
2024-03-13T00:08:58.622Z,100604.03
2024-03-13T00:10:03.007Z,100602.34
2024-03-13T00:11:06.093Z,100602.72
2024-03-13T00:12:09.045Z,100604.56
2024-03-13T00:13:30.923Z,100602.91
2024-03-13T00:14:34.528Z,100589.28
2024-03-13T00:15:37.372Z,100599.53
2024-03-13T00:16:40.302Z,100600.38
2024-03-13T00:17:46.714Z,100591.44
2024-03-13T00:18:49.804Z,100597.63
2024-03-13T00:19:53.521Z,100588.41
2024-03-13T00:20:56.372Z,100595.47
2024-03-13T00:21:59.353Z,100588.06
2024-03-13T00:23:03.411Z,100596.97
2024-03-13T00:24:06.475Z,100588.59
2024-03-13T00:25:14.108Z,100595.13
2024-03-13T00:26:18.625Z,100596.66
2024-03-13T00:27:24.694Z,100598.66
2024-03-13T00:28:27.952Z,100599.66
2024-03-13T00:29:31.072Z,100589.09
2024-03-13T00:30:34.274Z,100599.16
2024-03-13T00:31:37.204Z,100591.75
2024-03-13T00:32:40.367Z,100594.63
2024-03-13T00:33:43.441Z,100582.53
2024-03-13T00:34:49.111Z,100582.06
2024-03-13T00:35:52.182Z,100584.06
2024-03-13T00:36:57.823Z,100569.25
2024-03-13T00:38:01.331Z,100574.31
2024-03-13T00:39:04.661Z,100563.72
2024-03-13T00:40:08.198Z,100574.63
2024-03-13T00:41:11.677Z,100571.13
2024-03-13T00:42:14.849Z,100568.13
2024-03-13T00:43:17.864Z,100573.16
2024-03-13T00:44:39.121Z,100560.41
2024-03-13T00:45:42.222Z,100559.75
2024-03-13T00:46:45.143Z,100554.69
2024-03-13T00:47:48.107Z,100559.91
2024-03-13T00:48:51.454Z,100555.72
2024-03-13T00:49:54.349Z,100556.41
2024-03-13T00:50:57.351Z,100563.44
2024-03-13T00:52:00.893Z,100551.34
2024-03-13T00:53:03.919Z,100556.72
2024-03-13T00:54:07.178Z,100550.69
2024-03-13T00:55:12.436Z,100557.06
2024-03-13T00:56:17.500Z,100542.13
2024-03-13T00:57:20.721Z,100548.81
2024-03-13T00:58:24.418Z,100555.38
2024-03-13T00:59:28.738Z,100547.31
2024-03-13T01:00:34.488Z,100548.00
2024-03-13T01:01:37.493Z,100547.78
2024-03-13T01:02:43.030Z,100548.81
2024-03-13T01:03:47.451Z,100548.59
2024-03-13T01:04:50.473Z,100552.81
2024-03-13T01:05:57.778Z,100544.91
2024-03-13T01:07:00.759Z,100543.53
2024-03-13T01:08:04.304Z,100533.94
2024-03-13T01:09:07.853Z,100542.16
2024-03-13T01:10:11.150Z,100540.16
2024-03-13T01:11:14.200Z,100533.41
2024-03-13T01:12:20.484Z,100538.09
2024-03-13T01:13:23.597Z,100534.41
2024-03-13T01:14:26.732Z,100519.34
2024-03-13T01:15:29.727Z,100523.88
2024-03-13T01:16:32.731Z,100523.41
2024-03-13T01:17:36.681Z,100523.72
2024-03-13T01:18:39.846Z,100515.50
2024-03-13T01:19:42.758Z,100526.44
2024-03-13T01:20:45.676Z,100519.41
2024-03-13T01:21:55.269Z,100517.41
2024-03-13T01:22:58.288Z,100523.44
2024-03-13T01:24:01.171Z,100522.44
2024-03-13T01:25:05.199Z,100519.13
2024-03-13T01:26:10.949Z,100521.13
2024-03-13T01:27:14.213Z,100521.16
2024-03-13T01:28:17.311Z,100517.09
2024-03-13T01:29:20.228Z,100515.59
2024-03-13T01:30:23.356Z,100519.16
2024-03-13T01:31:28.298Z,100509.56
2024-03-13T01:32:33.627Z,100523.81
2024-03-13T01:33:43.690Z,100525.13
2024-03-13T01:34:47.942Z,100526.84
2024-03-13T01:35:50.937Z,100524.81
2024-03-13T01:37:12.424Z,100523.50
2024-03-13T01:38:15.574Z,100519.47
2024-03-13T01:39:22.356Z,100517.28
2024-03-13T01:40:48.410Z,100520.97
2024-03-13T01:42:09.969Z,100517.09
2024-03-13T01:43:31.477Z,100518.91
2024-03-13T01:44:52.881Z,100510.34
2024-03-13T01:46:32.219Z,100505.91
2024-03-13T01:47:53.876Z,100504.44
2024-03-13T01:49:15.756Z,100506.75
2024-03-13T01:50:37.622Z,100493.09
2024-03-13T01:51:59.468Z,100498.16
2024-03-13T01:53:20.927Z,100507.22
2024-03-13T01:54:42.355Z,100492.78
2024-03-13T01:55:48.752Z,100484.03
2024-03-13T01:57:20.642Z,100494.25
2024-03-13T01:58:41.687Z,100483.19
2024-03-13T01:59:51.063Z,100482.72
2024-03-13T02:01:15.110Z,100493.94
2024-03-13T02:02:25.916Z,100487.72
2024-03-13T02:03:30.007Z,100486.06
2024-03-13T02:04:32.981Z,100478.34
2024-03-13T02:05:37.594Z,100480.03
2024-03-13T02:06:40.795Z,100480.19
2024-03-13T02:07:43.729Z,100471.97
2024-03-13T02:08:46.828Z,100479.34
2024-03-13T02:09:50.660Z,100471.97
2024-03-13T02:10:53.730Z,100469.97
2024-03-13T02:11:56.761Z,100463.97
2024-03-13T02:13:12.850Z,100470.66
2024-03-13T02:14:17.555Z,100473.03
2024-03-13T02:15:20.680Z,100461.28
2024-03-13T02:16:23.789Z,100467.97
2024-03-13T02:17:27.116Z,100473.34
2024-03-13T02:18:33.078Z,100467.44
2024-03-13T02:19:41.504Z,100466.22
2024-03-13T02:20:44.883Z,100467.91
2024-03-13T02:21:49.126Z,100460.50
2024-03-13T02:23:06.003Z,100461.50
2024-03-13T02:24:09.240Z,100467.91
2024-03-13T02:25:12.142Z,100462.91
2024-03-13T02:26:15.356Z,100449.53
2024-03-13T02:27:18.262Z,100462.00
2024-03-13T02:28:38.999Z,100456.63
2024-03-13T02:29:44.861Z,100448.91
2024-03-13T02:30:49.393Z,100456.81
2024-03-13T02:31:52.353Z,100459.66
2024-03-13T02:32:58.128Z,100446.69
2024-03-13T02:34:01.142Z,100449.22
2024-03-13T02:35:05.088Z,100442.09
2024-03-13T02:36:08.255Z,100453.69
2024-03-13T02:37:11.931Z,100450.06
2024-03-13T02:38:15.165Z,100445.16
2024-03-13T02:39:20.801Z,100446.00
2024-03-13T02:40:24.737Z,100441.94
2024-03-13T02:41:27.834Z,100433.88
2024-03-13T02:42:31.247Z,100439.41
2024-03-13T02:43:36.612Z,100438.78
2024-03-13T02:44:40.064Z,100437.78
2024-03-13T02:45:43.813Z,100430.19
2024-03-13T02:46:46.771Z,100441.78
2024-03-13T02:47:49.811Z,100437.94
2024-03-13T02:48:53.223Z,100435.72
2024-03-13T02:49:56.198Z,100428.50
2024-03-13T02:50:59.333Z,100430.66
2024-03-13T02:52:02.299Z,100428.66
2024-03-13T02:53:05.265Z,100424.28
2024-03-13T02:54:08.305Z,100427.34
2024-03-13T02:55:12.227Z,100421.34
2024-03-13T02:56:15.183Z,100428.63
2024-03-13T02:57:19.097Z,100414.72
2024-03-13T02:58:23.626Z,100414.88
2024-03-13T02:59:26.732Z,100410.66
2024-03-13T03:00:30.526Z,100413.38
2024-03-13T03:01:33.553Z,100413.56
2024-03-13T03:02:40.171Z,100404.16
2024-03-13T03:03:43.307Z,100407.50
2024-03-13T03:04:46.209Z,100408.34
2024-03-13T03:05:49.117Z,100402.66
2024-03-13T03:06:52.257Z,100406.72
2024-03-13T03:07:55.221Z,100401.50
2024-03-13T03:08:59.500Z,100401.03
2024-03-13T03:10:02.746Z,100400.34
2024-03-13T03:11:05.817Z,100398.81
2024-03-13T03:12:10.953Z,100401.19
2024-03-13T03:13:14.918Z,100401.72
2024-03-13T03:14:17.832Z,100399.84
2024-03-13T03:15:21.103Z,100393.66
2024-03-13T03:16:24.260Z,100395.00
2024-03-13T03:17:27.295Z,100393.31
2024-03-13T03:18:30.245Z,100392.81
2024-03-13T03:19:36.127Z,100396.00
2024-03-13T03:20:39.134Z,100398.38
2024-03-13T03:21:42.060Z,100386.63
2024-03-13T03:22:45.109Z,100394.03
2024-03-13T03:23:48.045Z,100382.63
2024-03-13T03:24:50.974Z,100388.81
2024-03-13T03:25:54.221Z,100392.50
2024-03-13T03:26:57.633Z,100385.47
2024-03-13T03:28:00.584Z,100391.00
2024-03-13T03:29:03.846Z,100396.03
2024-03-13T03:30:07.940Z,100392.66
2024-03-13T03:31:11.817Z,100390.66
2024-03-13T03:32:14.849Z,100393.38
2024-03-13T03:33:17.810Z,100386.63
2024-03-13T03:34:20.712Z,100386.97
2024-03-13T03:35:24.972Z,100391.66
2024-03-13T03:36:27.857Z,100392.66
2024-03-13T03:37:30.850Z,100391.28
2024-03-13T03:38:33.941Z,100391.94
2024-03-13T03:39:41.385Z,100391.28
2024-03-13T03:40:44.310Z,100381.53
2024-03-13T03:41:49.950Z,100390.91
2024-03-13T03:42:53.087Z,100385.88
2024-03-13T03:43:56.268Z,100383.50
2024-03-13T03:44:59.322Z,100375.97
2024-03-13T03:46:02.375Z,100388.88
2024-03-13T03:47:05.370Z,100379.66
2024-03-13T03:48:12.434Z,100389.06
2024-03-13T03:49:16.430Z,100386.91
2024-03-13T03:50:20.236Z,100389.22
2024-03-13T03:51:23.527Z,100383.00
2024-03-13T03:52:26.499Z,100386.50
2024-03-13T03:53:29.505Z,100382.47
2024-03-13T03:54:33.174Z,100378.78
2024-03-13T03:55:36.153Z,100389.81
2024-03-13T03:56:42.403Z,100378.91
2024-03-13T03:57:47.181Z,100391.69
2024-03-13T03:58:52.535Z,100391.84
2024-03-13T03:59:55.650Z,100379.81
2024-03-13T04:00:58.753Z,100377.44
2024-03-13T04:02:01.822Z,100387.53
2024-03-13T04:03:05.883Z,100385.19
2024-03-13T04:04:09.553Z,100385.19
2024-03-13T04:05:12.865Z,100390.56
2024-03-13T04:06:19.053Z,100380.50
2024-03-13T04:07:22.714Z,100378.00
2024-03-13T04:08:25.774Z,100387.59
2024-03-13T04:09:28.653Z,100375.13
2024-03-13T04:10:31.597Z,100382.53
2024-03-13T04:11:34.599Z,100383.38
2024-03-13T04:12:37.579Z,100387.22
2024-03-13T04:13:43.666Z,100388.56
2024-03-13T04:14:46.593Z,100368.81
2024-03-13T04:15:52.437Z,100373.66
2024-03-13T04:16:56.607Z,100376.03
2024-03-13T04:17:59.566Z,100384.75
2024-03-13T04:19:02.573Z,100376.88
2024-03-13T04:20:06.149Z,100381.38
2024-03-13T04:21:12.611Z,100374.53
2024-03-13T04:22:16.758Z,100375.19
2024-03-13T04:23:19.857Z,100372.53
2024-03-13T04:24:22.697Z,100370.50
2024-03-13T04:25:26.451Z,100378.56
2024-03-13T04:26:30.881Z,100378.75
2024-03-13T04:27:33.850Z,100372.84
2024-03-13T04:28:38.692Z,100375.88
2024-03-13T04:29:48.215Z,100373.38
2024-03-13T04:30:51.804Z,100373.91
2024-03-13T04:31:54.777Z,100372.00
2024-03-13T04:32:57.781Z,100376.38
2024-03-13T04:34:01.806Z,100376.91
2024-03-13T04:35:05.543Z,100365.00
2024-03-13T04:36:08.866Z,100377.06
2024-03-13T04:37:14.332Z,100378.22
2024-03-13T04:38:20.688Z,100381.75
2024-03-13T04:39:23.659Z,100379.06
2024-03-13T04:40:27.575Z,100376.38
2024-03-13T04:41:32.152Z,100373.91
2024-03-13T04:42:35.033Z,100377.59
2024-03-13T04:43:38.165Z,100378.75
2024-03-13T04:44:41.062Z,100373.72
2024-03-13T04:45:43.975Z,100376.56
2024-03-13T04:46:47.623Z,100366.53
2024-03-13T04:47:50.961Z,100362.00
2024-03-13T04:48:54.135Z,100366.50
2024-03-13T04:49:57.368Z,100373.53
2024-03-13T04:51:02.806Z,100361.63
2024-03-13T04:52:06.149Z,100372.03
2024-03-13T04:53:09.107Z,100366.81
2024-03-13T04:54:11.990Z,100358.44
2024-03-13T04:55:14.911Z,100357.94
2024-03-13T04:56:18.479Z,100368.84
2024-03-13T04:57:21.479Z,100362.16
2024-03-13T04:58:24.493Z,100366.00
2024-03-13T04:59:27.776Z,100364.16
2024-03-13T05:00:30.675Z,100358.78
2024-03-13T05:01:33.778Z,100356.63
2024-03-13T05:02:39.404Z,100357.78
2024-03-13T05:03:43.913Z,100359.47
2024-03-13T05:04:46.721Z,100361.47
2024-03-13T05:05:50.245Z,100361.16
2024-03-13T05:06:56.451Z,100358.16
2024-03-13T05:08:02.851Z,100361.00
2024-03-13T05:09:06.575Z,100363.00
2024-03-13T05:10:10.999Z,100356.47
2024-03-13T05:11:16.266Z,100358.16
2024-03-13T05:12:19.313Z,100365.31
2024-03-13T05:13:22.414Z,100364.84
2024-03-13T05:14:25.385Z,100354.44
2024-03-13T05:15:28.432Z,100357.94
2024-03-13T05:16:31.587Z,100362.47
2024-03-13T05:17:40.880Z,100360.97
2024-03-13T05:18:44.060Z,100367.84
2024-03-13T05:19:46.898Z,100355.44
2024-03-13T05:20:49.956Z,100364.81
2024-03-13T05:21:55.892Z,100360.44
2024-03-13T05:22:58.802Z,100365.59
2024-03-13T05:24:02.057Z,100358.22
2024-03-13T05:25:13.439Z,100364.81
2024-03-13T05:26:16.460Z,100355.22
2024-03-13T05:27:19.523Z,100358.09
2024-03-13T05:28:23.323Z,100354.72
2024-03-13T05:29:27.007Z,100362.91
2024-03-13T05:30:29.911Z,100355.38
2024-03-13T05:31:32.943Z,100356.72
2024-03-13T05:32:35.963Z,100348.97
2024-03-13T05:33:42.228Z,100352.38
2024-03-13T05:34:45.201Z,100351.69
2024-03-13T05:35:48.184Z,100347.84
2024-03-13T05:36:51.152Z,100355.22
2024-03-13T05:37:54.296Z,100339.13
2024-03-13T05:38:57.638Z,100351.69
2024-03-13T05:40:03.442Z,100341.13
2024-03-13T05:41:09.482Z,100353.38
2024-03-13T05:42:13.414Z,100345.69
2024-03-13T05:43:16.419Z,100344.00
2024-03-13T05:44:19.602Z,100346.03
2024-03-13T05:45:22.461Z,100345.69
2024-03-13T05:46:25.385Z,100344.69
2024-03-13T05:47:28.398Z,100337.69
2024-03-13T05:48:32.501Z,100340.00
2024-03-13T05:49:35.420Z,100344.84
2024-03-13T05:50:38.469Z,100344.31
2024-03-13T05:51:41.357Z,100345.69
2024-03-13T05:52:44.261Z,100336.31
2024-03-13T05:53:47.236Z,100342.34
2024-03-13T05:54:50.633Z,100347.69
2024-03-13T05:55:53.550Z,100349.03
2024-03-13T05:56:56.571Z,100343.00
2024-03-13T05:57:59.797Z,100349.34
2024-03-13T05:59:02.708Z,100347.81
2024-03-13T06:00:10.753Z,100347.66
2024-03-13T06:01:16.740Z,100349.31
2024-03-13T06:02:19.951Z,100349.19
2024-03-13T06:03:23.496Z,100338.31
2024-03-13T06:04:27.291Z,100342.84
2024-03-13T06:05:30.279Z,100349.38
2024-03-13T06:06:33.364Z,100344.69
2024-03-13T06:07:36.445Z,100350.91
2024-03-13T06:08:39.357Z,100344.38
2024-03-13T06:09:42.360Z,100336.97
2024-03-13T06:10:45.386Z,100343.53
2024-03-13T06:11:48.452Z,100348.38
2024-03-13T06:12:51.451Z,100345.22
2024-03-13T06:13:55.496Z,100335.47
2024-03-13T06:14:58.444Z,100344.84
2024-03-13T06:16:01.647Z,100337.31
2024-03-13T06:17:04.875Z,100335.97
2024-03-13T06:18:08.800Z,100346.84
2024-03-13T06:19:13.236Z,100343.16
2024-03-13T06:20:19.911Z,100343.66
2024-03-13T06:21:23.210Z,100347.00
2024-03-13T06:22:26.435Z,100345.00
2024-03-13T06:23:29.652Z,100346.47
2024-03-13T06:24:33.969Z,100345.63
2024-03-13T06:25:43.115Z,100347.66
2024-03-13T06:26:50.515Z,100335.91
2024-03-13T06:28:02.910Z,100339.31
2024-03-13T06:29:24.735Z,100343.16
2024-03-13T06:30:27.608Z,100338.28
2024-03-13T06:31:30.516Z,100345.34
2024-03-13T06:32:33.810Z,100342.28
2024-03-13T06:33:36.764Z,100345.13
2024-03-13T06:34:40.413Z,100346.31
2024-03-13T06:35:43.506Z,100352.38
2024-03-13T06:36:46.426Z,100349.31
2024-03-13T06:37:49.314Z,100350.84
2024-03-13T06:38:52.335Z,100353.84
2024-03-13T06:39:55.506Z,100355.38
2024-03-13T06:40:58.577Z,100346.50
2024-03-13T06:42:01.491Z,100355.53
2024-03-13T06:43:04.553Z,100350.66
2024-03-13T06:44:07.670Z,100343.28
2024-03-13T06:45:18.690Z,100349.13
2024-03-13T06:46:26.240Z,100339.69
2024-03-13T06:47:29.406Z,100349.28
2024-03-13T06:48:32.311Z,100347.97
2024-03-13T06:49:35.368Z,100344.66
2024-03-13T06:50:38.376Z,100352.88
2024-03-13T06:51:41.876Z,100347.66
2024-03-13T06:52:45.220Z,100356.59
2024-03-13T06:53:48.303Z,100358.91
2024-03-13T06:54:51.203Z,100359.13
2024-03-13T06:55:54.065Z,100356.44
2024-03-13T06:56:57.467Z,100362.63
2024-03-13T06:58:00.371Z,100362.44
2024-03-13T06:59:03.269Z,100367.66
2024-03-13T07:00:06.913Z,100357.28
2024-03-13T07:01:16.175Z,100363.97
2024-03-13T07:02:19.387Z,100373.50
2024-03-13T07:03:25.620Z,100369.44
2024-03-13T07:04:28.937Z,100376.47
2024-03-13T07:05:31.893Z,100370.75
2024-03-13T07:06:35.840Z,100372.06
2024-03-13T07:07:39.918Z,100366.81
2024-03-13T07:08:43.248Z,100374.66
2024-03-13T07:09:47.411Z,100372.97
2024-03-13T07:10:50.409Z,100369.50
2024-03-13T07:11:54.801Z,100374.88
2024-03-13T07:12:59.457Z,100371.13
2024-03-13T07:14:03.180Z,100372.63
2024-03-13T07:15:11.169Z,100369.06
2024-03-13T07:16:14.919Z,100377.22
2024-03-13T07:17:17.901Z,100372.69
2024-03-13T07:18:20.804Z,100366.81
2024-03-13T07:19:24.883Z,100381.19
2024-03-13T07:20:28.135Z,100378.19
2024-03-13T07:21:31.022Z,100379.50
2024-03-13T07:22:35.935Z,100382.50
2024-03-13T07:23:39.281Z,100387.47
2024-03-13T07:24:42.204Z,100378.84
2024-03-13T07:25:45.279Z,100381.53
2024-03-13T07:26:48.267Z,100376.72
2024-03-13T07:27:52.914Z,100375.19
2024-03-13T07:28:59.178Z,100384.56
2024-03-13T07:30:02.414Z,100373.84
2024-03-13T07:31:08.385Z,100381.31
2024-03-13T07:32:11.863Z,100379.66
2024-03-13T07:33:15.745Z,100379.56
2024-03-13T07:34:18.808Z,100381.94
2024-03-13T07:35:22.843Z,100382.19
2024-03-13T07:36:28.289Z,100376.56
2024-03-13T07:37:31.555Z,100379.44
2024-03-13T07:38:35.655Z,100380.69
2024-03-13T07:39:38.979Z,100374.75
2024-03-13T07:40:41.910Z,100382.38
2024-03-13T07:41:44.991Z,100378.66
2024-03-13T07:42:51.268Z,100373.97
2024-03-13T07:43:55.834Z,100375.31
2024-03-13T07:44:58.830Z,100376.03
2024-03-13T07:46:01.705Z,100374.72
2024-03-13T07:47:04.690Z,100373.53
2024-03-13T07:48:11.655Z,100370.34
2024-03-13T07:49:15.179Z,100376.63
2024-03-13T07:50:18.037Z,100376.66
2024-03-13T07:51:22.126Z,100379.09
2024-03-13T07:52:25.030Z,100375.09
2024-03-13T07:53:28.065Z,100380.13
2024-03-13T07:54:31.116Z,100387.94
2024-03-13T07:55:34.264Z,100380.31
2024-03-13T07:56:39.274Z,100381.59
2024-03-13T07:57:42.313Z,100381.44
2024-03-13T07:58:45.356Z,100380.69
2024-03-13T07:59:48.261Z,100384.69
2024-03-13T08:00:51.351Z,100383.44
2024-03-13T08:01:54.400Z,100387.19
2024-03-13T08:02:57.835Z,100398.03
2024-03-13T08:04:00.976Z,100398.69
2024-03-13T08:05:04.384Z,100391.34
2024-03-13T09:06:35.134Z,100394.88
2024-03-13T09:07:42.014Z,100395.00
2024-03-13T09:08:48.524Z,100398.69
2024-03-13T09:09:52.054Z,100406.22
2024-03-13T09:10:55.442Z,100392.94
2024-03-13T09:11:58.834Z,100399.22
2024-03-13T09:13:04.435Z,100389.94
2024-03-13T09:14:09.309Z,100391.38
2024-03-13T09:15:12.595Z,100384.06
2024-03-13T09:16:18.393Z,100397.72
2024-03-13T09:17:21.748Z,100391.75
2024-03-13T09:18:25.164Z,100396.56
2024-03-13T09:19:28.480Z,100392.88
2024-03-13T09:20:31.337Z,100403.41
2024-03-13T09:21:34.450Z,100398.47
2024-03-13T09:22:37.352Z,100392.72
2024-03-13T09:23:40.329Z,100398.59
2024-03-13T09:24:45.722Z,100398.03
2024-03-13T09:25:48.898Z,100395.31
2024-03-13T09:26:52.208Z,100398.50
2024-03-13T09:27:56.008Z,100384.50
2024-03-13T09:28:58.948Z,100381.06
2024-03-13T09:30:05.236Z,100386.41
2024-03-13T09:31:09.138Z,100399.91
2024-03-13T09:32:12.083Z,100386.22
2024-03-13T09:33:15.289Z,100387.94
2024-03-13T09:34:18.366Z,100387.41
2024-03-13T09:35:22.189Z,100394.75
2024-03-13T09:36:25.182Z,100394.19
2024-03-13T09:37:28.451Z,100390.00
2024-03-13T09:38:32.510Z,100391.44
2024-03-13T09:39:35.546Z,100399.84
2024-03-13T09:40:41.621Z,100383.25
2024-03-13T09:41:45.803Z,100384.81
2024-03-13T09:42:48.723Z,100371.41
2024-03-13T09:43:52.645Z,100381.16
2024-03-13T09:44:57.687Z,100381.13
2024-03-13T09:46:01.737Z,100378.19
2024-03-13T09:47:07.476Z,100369.66
2024-03-13T09:48:14.573Z,100377.91
2024-03-13T09:49:17.874Z,100376.25
2024-03-13T09:50:23.895Z,100384.91
2024-03-13T09:51:26.849Z,100381.69
2024-03-13T09:52:30.642Z,100382.28
2024-03-13T09:53:34.309Z,100390.59
2024-03-13T09:54:37.328Z,100381.72
2024-03-13T09:55:40.313Z,100388.88
2024-03-13T09:56:43.432Z,100378.94
2024-03-13T09:57:50.107Z,100379.53
2024-03-13T09:58:55.769Z,100372.22
2024-03-13T09:59:59.913Z,100373.97
2024-03-13T10:01:03.331Z,100375.69
2024-03-13T10:02:06.427Z,100384.47
2024-03-13T10:03:25.749Z,100372.59
2024-03-13T10:04:28.792Z,100361.03
2024-03-13T10:05:32.262Z,100371.84
2024-03-13T10:06:35.323Z,100366.88
2024-03-13T10:07:38.868Z,100362.47
2024-03-13T10:08:43.960Z,100356.75
2024-03-13T10:09:49.776Z,100349.44
2024-03-13T10:10:52.661Z,100355.69
2024-03-13T10:11:58.095Z,100351.25
2024-03-13T10:13:03.463Z,100366.31
2024-03-13T10:14:06.541Z,100363.53
2024-03-13T10:15:12.853Z,100366.34
2024-03-13T10:16:16.215Z,100362.47
2024-03-13T10:17:20.928Z,100357.25
2024-03-13T10:18:24.678Z,100359.34
2024-03-13T10:19:29.524Z,100363.84
2024-03-13T10:20:35.566Z,100348.72
2024-03-13T10:21:38.544Z,100361.66
2024-03-13T10:22:42.537Z,100365.78
2024-03-13T10:23:46.656Z,100357.53
2024-03-13T10:24:49.927Z,100358.50
2024-03-13T10:25:53.155Z,100358.94
2024-03-13T10:26:56.155Z,100356.78
2024-03-13T10:27:59.056Z,100355.34
2024-03-13T10:29:02.180Z,100349.44
2024-03-13T10:30:06.807Z,100353.94
2024-03-13T10:31:09.898Z,100350.91
2024-03-13T10:32:13.523Z,100355.22
2024-03-13T10:33:17.112Z,100353.97
2024-03-13T10:34:21.155Z,100362.47
2024-03-13T10:35:25.504Z,100356.47
2024-03-13T10:36:28.644Z,100349.16
2024-03-13T10:37:31.645Z,100360.81
2024-03-13T10:38:37.693Z,100357.41
2024-03-13T10:39:43.636Z,100363.03
2024-03-13T10:40:47.868Z,100355.84
2024-03-13T10:41:53.669Z,100357.41
2024-03-13T10:42:56.635Z,100353.09
2024-03-13T10:44:01.873Z,100367.13
2024-03-13T10:45:06.474Z,100356.91
2024-03-13T10:46:10.586Z,100348.47
2024-03-13T10:47:14.094Z,100341.47
2024-03-13T10:48:20.015Z,100358.25
2024-03-13T10:49:22.969Z,100355.22
2024-03-13T10:50:25.930Z,100358.00
2024-03-13T10:51:30.602Z,100367.38
2024-03-13T10:52:33.449Z,100367.28
2024-03-13T10:53:36.476Z,100357.06
2024-03-13T10:54:39.687Z,100359.53
2024-03-13T10:55:44.413Z,100347.03
2024-03-13T10:56:53.200Z,100358.59
2024-03-13T10:57:56.359Z,100350.91
2024-03-13T10:59:02.711Z,100352.09
2024-03-13T11:00:12.360Z,100359.03
2024-03-13T11:01:19.684Z,100362.19
2024-03-13T11:02:22.755Z,100351.72
2024-03-13T11:03:28.361Z,100359.50
2024-03-13T11:04:32.320Z,100352.97
2024-03-13T11:05:35.215Z,100367.50
2024-03-13T11:06:38.259Z,100366.59
2024-03-13T11:07:41.358Z,100368.09
2024-03-13T11:08:44.292Z,100360.03
2024-03-13T11:09:47.228Z,100362.31
2024-03-13T11:11:02.114Z,100362.47
2024-03-13T11:12:22.870Z,100355.03
2024-03-13T11:13:26.536Z,100360.00
2024-03-13T11:14:29.513Z,100363.28
2024-03-13T11:15:39.484Z,100372.94
2024-03-13T11:16:45.774Z,100357.78
2024-03-13T11:17:52.715Z,100367.44
2024-03-13T11:18:57.937Z,100372.13
2024-03-13T11:20:10.599Z,100358.84
2024-03-13T11:21:35.865Z,100359.13
2024-03-13T11:22:38.995Z,100361.63
2024-03-13T11:23:42.836Z,100378.44
2024-03-13T11:24:45.794Z,100369.38
2024-03-13T11:25:51.827Z,100368.47
2024-03-13T11:26:54.847Z,100364.09
2024-03-13T11:27:59.082Z,100365.44
2024-03-13T11:29:02.174Z,100361.84
2024-03-13T11:30:05.780Z,100365.13
2024-03-13T11:31:10.479Z,100370.47
2024-03-13T11:32:14.499Z,100367.28
2024-03-13T11:33:17.637Z,100352.94
2024-03-13T11:34:21.793Z,100356.84
2024-03-13T11:35:24.814Z,100359.22
2024-03-13T11:36:27.880Z,100360.19
2024-03-13T11:37:30.933Z,100344.72
2024-03-13T11:38:36.599Z,100346.31
2024-03-13T11:39:40.340Z,100354.31
2024-03-13T11:40:43.409Z,100344.97
2024-03-13T11:41:49.339Z,100351.88
2024-03-13T11:42:52.486Z,100358.50
2024-03-13T11:43:55.408Z,100353.19
2024-03-13T11:45:24.789Z,100360.53
2024-03-13T11:46:44.758Z,100355.59
2024-03-13T11:47:49.676Z,100353.56
2024-03-13T11:48:53.075Z,100359.19
2024-03-13T11:49:58.979Z,100357.25
2024-03-13T11:51:02.220Z,100353.97
2024-03-13T11:52:05.086Z,100358.84
2024-03-13T11:53:08.651Z,100351.66
2024-03-13T11:54:14.589Z,100352.28
2024-03-13T11:55:26.035Z,100363.34
2024-03-13T11:56:31.689Z,100351.72
2024-03-13T11:57:35.401Z,100346.78
2024-03-13T11:58:40.606Z,100351.91
2024-03-13T11:59:53.714Z,100353.38
2024-03-13T12:00:56.762Z,100349.38
2024-03-13T12:01:59.884Z,100348.19
2024-03-13T12:03:03.906Z,100353.13
2024-03-13T12:04:07.991Z,100352.56
2024-03-13T12:05:13.959Z,100353.13
2024-03-13T12:06:25.676Z,100339.06
2024-03-13T12:07:28.794Z,100345.13
2024-03-13T12:08:31.779Z,100342.94
2024-03-13T12:09:34.752Z,100332.50
2024-03-13T12:10:37.922Z,100339.91
2024-03-13T12:11:40.848Z,100333.28
2024-03-13T12:12:43.713Z,100353.13
2024-03-13T12:13:47.156Z,100333.78
2024-03-13T12:14:50.184Z,100341.97
2024-03-13T12:15:53.595Z,100331.84
2024-03-13T12:16:57.141Z,100327.16
2024-03-13T12:18:06.016Z,100332.91
2024-03-13T12:19:11.511Z,100328.50
2024-03-13T12:20:19.856Z,100317.88
2024-03-13T12:21:25.683Z,100334.13
2024-03-13T12:22:28.616Z,100333.59
2024-03-13T12:23:31.571Z,100333.31
2024-03-13T12:24:34.949Z,100337.16
2024-03-13T12:25:38.265Z,100338.81
2024-03-13T12:26:41.424Z,100336.31
2024-03-13T12:27:45.893Z,100336.88
2024-03-13T12:28:52.414Z,100341.56
2024-03-13T12:29:56.557Z,100326.41
2024-03-13T12:31:00.454Z,100323.16
2024-03-13T12:32:03.437Z,100332.19
2024-03-13T12:33:07.345Z,100321.75
2024-03-13T12:34:11.843Z,100327.66
2024-03-13T12:35:15.065Z,100325.84
2024-03-13T12:36:19.576Z,100335.56
2024-03-13T12:37:22.585Z,100327.88
2024-03-13T12:38:38.590Z,100336.59
2024-03-13T12:39:42.229Z,100329.47
2024-03-13T12:40:46.458Z,100332.19
2024-03-13T12:41:50.141Z,100349.94
2024-03-13T12:42:53.225Z,100325.75
2024-03-13T12:43:56.182Z,100338.81
2024-03-13T12:44:59.981Z,100329.28
2024-03-13T12:46:03.997Z,100333.84
2024-03-13T12:47:07.014Z,100340.13
2024-03-13T12:48:10.198Z,100328.63
2024-03-13T12:49:15.801Z,100335.19
2024-03-13T12:50:19.604Z,100328.88
2024-03-13T12:51:22.716Z,100331.03
2024-03-13T12:52:27.296Z,100334.28
2024-03-13T12:53:33.162Z,100333.84
2024-03-13T12:54:37.185Z,100333.31
2024-03-13T12:55:40.331Z,100339.59
2024-03-13T12:56:46.280Z,100350.38
2024-03-13T12:57:49.627Z,100341.06
2024-03-13T12:58:53.293Z,100338.09
2024-03-13T12:59:56.178Z,100334.38
2024-03-13T13:01:03.068Z,100336.50
2024-03-13T13:02:06.253Z,100336.50
2024-03-13T13:03:10.871Z,100350.72
2024-03-13T13:04:15.943Z,100335.63
2024-03-13T13:05:19.025Z,100331.19
2024-03-13T13:06:22.879Z,100330.91
2024-03-13T13:07:25.905Z,100337.00
2024-03-13T13:08:30.299Z,100333.25
2024-03-13T13:09:34.083Z,100345.13
2024-03-13T13:10:39.528Z,100338.88
2024-03-13T13:11:45.524Z,100342.97
2024-03-13T13:13:07.917Z,100343.97
2024-03-13T13:14:11.444Z,100335.31
2024-03-13T13:15:14.779Z,100333.25
2024-03-13T13:16:17.893Z,100344.97
2024-03-13T13:17:21.967Z,100327.66
2024-03-13T13:18:25.035Z,100334.28
2024-03-13T13:19:28.097Z,100325.75